Time;durP1;ratioP1;P1;durP2;ratioP2;P2;SDS_P1;SDS_P2;PMS_P1;PMS_P2;Temp;Humidity;BMP_temperature;BMP_pressure;BME280_temperature;BME280_humidity;BME280_pressure;Samples;Min_cycle;Max_cycle;Signal;HPM_P1;HPM_P2
2022/08/19 00:01:50;;;;;;;18.50;13.88;;;21.40;99.90;;;;;;5074262;28;20384;-77
2022/08/19 00:04:26;;;;;;;17.83;13.07;;;21.30;99.90;;;;;;5080601;28;20805;-78
2022/08/19 00:06:54;;;;;;;21.98;14.90;;;21.40;99.90;;;;;;5084106;28;20429;-77
2022/08/19 00:09:23;;;;;;;18.48;14.07;;;21.40;99.90;;;;;;5078203;28;20388;-77
2022/08/19 00:11:52;;;;;;;20.98;15.45;;;21.30;99.90;;;;;;5075871;28;20388;-77
2022/08/19 00:14:20;;;;;;;20.02;14.10;;;21.30;99.90;;;;;;5084405;28;20397;-78
2022/08/19 00:16:48;;;;;;;18.47;14.17;;;21.30;99.90;;;;;;5085804;28;20441;-77
2022/08/19 00:19:16;;;;;;;18.60;14.03;;;21.20;99.90;;;;;;5079255;28;20536;-78
2022/08/19 00:21:44;;;;;;;19.58;13.48;;;21.30;99.90;;;;;;5080783;28;20394;-78
2022/08/19 00:24:14;;;;;;;22.15;14.90;;;21.30;99.90;;;;;;5079855;28;20448;-77
2022/08/19 00:26:43;;;;;;;20.08;13.68;;;21.30;99.90;;;;;;5080375;28;20406;-77
2022/08/19 00:29:13;;;;;;;19.42;13.85;;;21.20;99.90;;;;;;5081674;28;20401;-78
2022/08/19 00:31:42;;;;;;;16.52;13.90;;;21.20;99.90;;;;;;5081988;28;20480;-78
2022/08/19 00:34:11;;;;;;;21.85;15.32;;;21.20;99.90;;;;;;5083527;28;20402;-77
2022/08/19 00:36:40;;;;;;;20.42;14.90;;;21.20;99.90;;;;;;5081244;28;20886;-77
2022/08/19 00:39:08;;;;;;;21.13;14.13;;;21.10;99.90;;;;;;5082754;28;20428;-77
2022/08/19 00:41:36;;;;;;;18.77;14.98;;;21.10;99.90;;;;;;5080142;28;20397;-76
2022/08/19 00:44:06;;;;;;;18.75;14.57;;;21.10;99.90;;;;;;5080871;28;20389;-77
2022/08/19 00:46:38;;;;;;;21.58;14.63;;;21.10;99.90;;;;;;5082298;28;20392;-78
2022/08/19 00:49:20;;;;;;;18.25;14.60;;;21.10;99.90;;;;;;5089102;28;20398;-77
2022/08/19 00:51:55;;;;;;;20.98;15.10;;;21.00;99.90;;;;;;5080351;28;20383;-78
2022/08/19 00:54:22;;;;;;;22.42;15.98;;;21.00;99.90;;;;;;5086943;28;20800;-77
2022/08/19 00:56:59;;;;;;;19.98;14.00;;;20.90;99.90;;;;;;5082767;28;20389;-78
2022/08/19 00:59:29;;;;;;;20.17;14.77;;;20.90;99.90;;;;;;5073487;28;20404;-78
2022/08/19 01:02:17;;;;;;;21.50;13.95;;;20.90;99.90;;;;;;5079900;28;20493;-77
2022/08/19 01:04:45;;;;;;;20.55;13.38;;;20.80;99.90;;;;;;5080183;28;20891;-78
2022/08/19 01:07:13;;;;;;;16.58;13.60;;;20.80;99.90;;;;;;5076733;28;20425;-77
2022/08/19 01:09:43;;;;;;;17.25;13.60;;;20.90;99.90;;;;;;5077426;28;20407;-78
2022/08/19 01:12:11;;;;;;;18.83;13.63;;;20.90;99.90;;;;;;5085301;28;20406;-78
2022/08/19 01:14:40;;;;;;;20.37;13.77;;;20.80;99.90;;;;;;5080616;28;20394;-78
2022/08/19 01:17:09;;;;;;;16.02;13.23;;;20.80;99.90;;;;;;5085633;28;20805;-77
2022/08/19 01:19:40;;;;;;;19.55;13.85;;;20.70;99.90;;;;;;5081538;28;20407;-77
2022/08/19 01:22:26;;;;;;;17.65;13.27;;;20.80;99.90;;;;;;5073307;28;20481;-78
2022/08/19 01:25:03;;;;;;;16.95;12.45;;;20.80;99.90;;;;;;5078580;28;20962;-78
2022/08/19 01:27:44;;;;;;;18.10;13.63;;;20.70;99.90;;;;;;5107658;27;20429;-76
2022/08/19 01:30:16;;;;;;;16.55;12.25;;;20.70;99.90;;;;;;5068738;28;20406;-77
2022/08/19 01:32:44;;;;;;;17.50;14.13;;;20.70;99.90;;;;;;5080949;28;20757;-78
2022/08/19 01:35:13;;;;;;;15.93;13.55;;;20.70;99.90;;;;;;5081745;28;20602;-78
2022/08/19 01:37:59;;;;;;;16.90;14.05;;;20.70;99.90;;;;;;5075312;28;20377;-78
2022/08/19 01:40:32;;;;;;;15.55;12.30;;;20.60;99.90;;;;;;5112232;27;20846;-78
2022/08/19 01:43:01;;;;;;;20.63;13.30;;;20.60;99.90;;;;;;5072430;28;20880;-77
2022/08/19 01:45:32;;;;;;;16.95;12.23;;;20.60;99.90;;;;;;5082055;28;20394;-78
2022/08/19 01:48:00;;;;;;;17.90;12.57;;;20.60;99.90;;;;;;5081130;28;20463;-77
2022/08/19 01:50:30;;;;;;;17.08;12.82;;;20.60;99.90;;;;;;5079979;28;20397;-78
2022/08/19 01:52:59;;;;;;;16.73;13.02;;;20.60;99.90;;;;;;5081116;28;20393;-77
2022/08/19 01:55:37;;;;;;;18.40;13.93;;;20.60;99.90;;;;;;5081217;28;20896;-77
2022/08/19 01:58:14;;;;;;;17.30;12.50;;;20.60;99.90;;;;;;5082734;28;20758;-80
2022/08/19 02:00:43;;;;;;;16.67;12.52;;;20.50;99.90;;;;;;5081928;28;20402;-79
2022/08/19 02:03:11;;;;;;;19.25;12.45;;;20.50;99.90;;;;;;5085878;28;20397;-79
2022/08/19 02:05:40;;;;;;;17.67;12.93;;;20.60;99.90;;;;;;5080085;28;20405;-79
2022/08/19 02:08:08;;;;;;;20.40;12.68;;;20.50;99.90;;;;;;5077662;28;20402;-79
2022/08/19 02:10:43;;;;;;;20.05;12.90;;;20.50;99.90;;;;;;5079266;28;20483;-79
2022/08/19 02:13:13;;;;;;;19.60;13.53;;;20.50;99.90;;;;;;5056747;28;20426;-79
2022/08/19 02:15:40;;;;;;;18.60;12.98;;;20.40;99.90;;;;;;5082677;28;20381;-78
2022/08/19 02:18:08;;;;;;;16.63;11.90;;;20.40;99.90;;;;;;5078696;28;20872;-79
2022/08/19 02:20:38;;;;;;;20.02;12.57;;;20.40;99.90;;;;;;5089575;28;20441;-78
2022/08/19 02:23:07;;;;;;;18.20;12.68;;;20.50;99.90;;;;;;5079731;28;20667;-79
2022/08/19 02:25:44;;;;;;;16.05;12.77;;;20.30;99.90;;;;;;5077874;28;20778;-78
2022/08/19 02:28:12;;;;;;;18.20;12.77;;;20.30;99.90;;;;;;5079872;28;20388;-79
2022/08/19 02:30:46;;;;;;;14.95;11.80;;;20.30;99.90;;;;;;5079878;28;20398;-79
2022/08/19 02:33:13;;;;;;;18.90;13.13;;;20.40;99.90;;;;;;5081271;28;20402;-79
2022/08/19 02:35:43;;;;;;;15.70;11.82;;;20.30;99.90;;;;;;5080055;28;20400;-79
2022/08/19 02:38:25;;;;;;;17.50;12.45;;;20.30;99.90;;;;;;5087412;28;20777;-79
2022/08/19 02:41:02;;;;;;;15.45;12.18;;;20.30;99.90;;;;;;5079544;28;20877;-79
2022/08/19 02:43:35;;;;;;;16.80;12.07;;;20.30;99.90;;;;;;5082408;28;20889;-78
2022/08/19 02:46:20;;;;;;;16.40;12.77;;;20.30;99.90;;;;;;5077067;28;20492;-79
2022/08/19 02:48:53;;;;;;;18.23;11.77;;;20.30;99.90;;;;;;5093919;28;20410;-77
2022/08/19 02:51:27;;;;;;;18.75;11.93;;;20.30;99.90;;;;;;5078380;28;20404;-79
2022/08/19 02:53:56;;;;;;;17.70;12.30;;;20.20;99.90;;;;;;5080037;28;20401;-79
2022/08/19 02:56:27;;;;;;;19.50;11.95;;;20.20;99.90;;;;;;5070110;28;20395;-79
2022/08/19 02:58:55;;;;;;;15.95;11.82;;;20.30;99.90;;;;;;5071505;28;20435;-78
2022/08/19 03:01:31;;;;;;;17.15;12.15;;;20.20;99.90;;;;;;5050903;28;20388;-79
2022/08/19 03:04:01;;;;;;;15.27;12.35;;;20.20;99.90;;;;;;5067700;28;20435;-78
2022/08/19 03:06:29;;;;;;;15.38;11.27;;;20.20;99.90;;;;;;5086129;28;20396;-79
2022/08/19 03:08:57;;;;;;;18.75;12.45;;;20.10;99.90;;;;;;5075509;28;20812;-79
2022/08/19 03:11:31;;;;;;;17.23;12.57;;;20.20;99.90;;;;;;5077672;28;20743;-79
2022/08/19 03:13:59;;;;;;;15.60;11.70;;;20.20;99.90;;;;;;5095056;28;20396;-80
2022/08/19 03:16:29;;;;;;;15.68;11.77;;;20.10;99.90;;;;;;5088331;28;20392;-80
2022/08/19 03:19:00;;;;;;;16.58;11.77;;;20.10;99.90;;;;;;5084377;28;20397;-78
2022/08/19 03:21:33;;;;;;;17.77;12.80;;;20.10;99.90;;;;;;5073911;28;20382;-78
2022/08/19 03:24:07;;;;;;;16.38;11.10;;;20.10;99.90;;;;;;5079787;28;20930;-79
2022/08/19 03:26:38;;;;;;;17.55;12.23;;;20.10;99.90;;;;;;5081736;28;20402;-79
2022/08/19 03:29:06;;;;;;;15.48;11.57;;;20.10;99.90;;;;;;5075559;28;20386;-79
2022/08/19 03:31:37;;;;;;;16.55;11.85;;;20.10;99.90;;;;;;5089740;28;20395;-78
2022/08/19 03:34:28;;;;;;;16.85;12.52;;;20.10;99.90;;;;;;5079582;28;20917;-79
2022/08/19 03:37:00;;;;;;;16.90;11.90;;;20.10;99.90;;;;;;5116686;27;20401;-78
2022/08/19 03:39:28;;;;;;;18.37;12.10;;;20.10;99.90;;;;;;5085302;28;20716;-79
2022/08/19 03:42:02;;;;;;;16.75;12.00;;;20.10;99.90;;;;;;5080816;28;20420;-79
2022/08/19 03:44:49;;;;;;;12.87;10.37;;;20.10;99.90;;;;;;5077611;28;20772;-79
2022/08/19 03:47:17;;;;;;;14.32;10.52;;;20.10;99.90;;;;;;5081186;28;20416;-79
2022/08/19 03:49:45;;;;;;;15.30;10.88;;;20.10;99.90;;;;;;5081432;28;20407;-79
2022/08/19 03:52:13;;;;;;;15.27;12.10;;;20.10;99.90;;;;;;5082790;28;20381;-79
2022/08/19 03:54:40;;;;;;;13.13;10.52;;;20.10;99.90;;;;;;5082485;28;20387;-79
2022/08/19 03:57:08;;;;;;;14.98;10.98;;;20.10;99.90;;;;;;5081384;28;20402;-78
2022/08/19 03:59:39;;;;;;;12.82;10.82;;;20.10;99.90;;;;;;5087752;28;20401;-78
2022/08/19 04:02:12;;;;;;;13.50;11.10;;;20.10;99.90;;;;;;5076389;28;20397;-79
2022/08/19 04:04:43;;;;;;;15.70;11.47;;;20.10;99.90;;;;;;5080299;28;20398;-79
2022/08/19 04:07:15;;;;;;;16.45;10.07;;;20.10;99.90;;;;;;5082173;28;20398;-80
2022/08/19 04:09:43;;;;;;;17.17;11.23;;;20.10;99.90;;;;;;5075944;28;20428;-79
2022/08/19 04:12:11;;;;;;;15.68;11.75;;;20.10;99.90;;;;;;5079157;28;20378;-79
2022/08/19 04:14:40;;;;;;;18.48;11.45;;;20.10;99.90;;;;;;5078472;28;20398;-78
2022/08/19 04:17:07;;;;;;;15.57;10.40;;;20.10;99.90;;;;;;5081836;28;20409;-79
2022/08/19 04:19:36;;;;;;;16.27;11.43;;;20.10;99.90;;;;;;5078328;28;20396;-79
2022/08/19 04:22:04;;;;;;;15.32;11.07;;;20.10;99.90;;;;;;5083758;28;20738;-79
2022/08/19 04:24:33;;;;;;;15.25;11.55;;;20.00;99.90;;;;;;5081822;28;20466;-79
2022/08/19 04:27:02;;;;;;;14.02;10.18;;;20.10;99.90;;;;;;5081173;28;20412;-79
2022/08/19 04:29:30;;;;;;;13.50;11.55;;;20.10;99.90;;;;;;5070867;28;20394;-78
2022/08/19 04:31:58;;;;;;;16.17;11.20;;;20.10;99.90;;;;;;5078225;28;20799;-79
2022/08/19 04:34:36;;;;;;;17.25;11.38;;;20.10;99.90;;;;;;5080648;28;20394;-79
2022/08/19 04:37:24;;;;;;;15.37;11.30;;;20.10;99.90;;;;;;5077666;28;20489;-80
2022/08/19 04:42:38;;;;;;;25.58;18.48;;;20.10;99.90;;;;;;5082205;28;20395;-78
2022/08/19 04:45:14;;;;;;;16.85;12.32;;;20.10;99.90;;;;;;5083340;28;20478;-80
2022/08/19 04:47:44;;;;;;;16.52;12.13;;;20.10;99.90;;;;;;5080321;28;20459;-79
2022/08/19 04:50:27;;;;;;;14.02;10.88;;;20.10;99.90;;;;;;5080965;28;20457;-78
2022/08/19 04:52:55;;;;;;;15.05;11.15;;;20.10;99.90;;;;;;5082104;28;20419;-79
2022/08/19 04:55:27;;;;;;;14.60;10.05;;;20.10;99.90;;;;;;5080923;28;20393;-78
2022/08/19 04:57:54;;;;;;;15.05;10.05;;;20.10;99.90;;;;;;5083586;28;20387;-79
2022/08/19 05:00:23;;;;;;;14.33;10.20;;;20.20;99.90;;;;;;5082190;28;20752;-78
2022/08/19 05:02:50;;;;;;;12.88;10.15;;;20.20;99.90;;;;;;5086430;28;20442;-78
2022/08/19 05:05:19;;;;;;;15.15;10.70;;;20.20;99.90;;;;;;5083165;28;20386;-78
2022/08/19 05:07:47;;;;;;;13.60;10.27;;;20.20;99.90;;;;;;5080136;28;20907;-78
2022/08/19 05:10:15;;;;;;;15.10;10.45;;;20.20;99.90;;;;;;5085638;28;20392;-79
2022/08/19 05:12:42;;;;;;;15.77;10.45;;;20.20;99.90;;;;;;5073517;28;20878;-78
2022/08/19 05:15:10;;;;;;;13.70;10.98;;;20.30;99.90;;;;;;5080627;28;20380;-78
2022/08/19 05:22:31;;;;;;;12.27;10.65;;;20.30;99.90;;;;;;5088493;28;20453;-77
2022/08/19 05:23:15;;;;;;;18.02;10.75;;;20.30;99.90;;;;;;5075681;28;20451;-80
2022/08/19 05:25:48;;;;;;;13.77;10.18;;;20.30;99.90;;;;;;5075558;28;20402;-78
2022/08/19 05:28:16;;;;;;;13.85;10.85;;;20.40;99.90;;;;;;5078882;28;20404;-79
2022/08/19 05:30:44;;;;;;;14.67;11.47;;;20.40;99.90;;;;;;5081762;28;20424;-82
2022/08/19 05:33:13;;;;;;;25.25;16.50;;;20.40;99.90;;;;;;5080256;28;20464;-80
2022/08/19 05:35:41;;;;;;;14.93;12.25;;;20.50;99.90;;;;;;5077966;28;20742;-80
2022/08/19 05:38:10;;;;;;;14.05;9.70;;;20.50;99.90;;;;;;5081464;28;20856;-80
2022/08/19 05:40:39;;;;;;;14.80;10.25;;;20.50;99.90;;;;;;5076652;28;20405;-78
2022/08/19 05:43:08;;;;;;;16.42;10.00;;;20.50;99.90;;;;;;5074869;28;20399;-80
2022/08/19 05:45:40;;;;;;;15.27;10.43;;;20.50;99.90;;;;;;5071989;28;20405;-80
2022/08/19 05:48:10;;;;;;;15.82;10.60;;;20.50;99.90;;;;;;5069998;28;20755;-78
2022/08/19 05:50:40;;;;;;;16.25;10.75;;;20.60;99.90;;;;;;5069894;28;20378;-80
2022/08/19 05:53:08;;;;;;;14.32;9.85;;;20.60;99.90;;;;;;5076778;28;20412;-79
2022/08/19 05:55:38;;;;;;;13.27;9.60;;;20.60;99.90;;;;;;5077724;28;20449;-79
2022/08/19 05:58:07;;;;;;;13.77;9.85;;;20.70;99.90;;;;;;5081145;28;20413;-79
2022/08/19 06:00:36;;;;;;;16.58;10.23;;;20.70;99.90;;;;;;5081644;28;20563;-80
2022/08/19 06:03:04;;;;;;;16.30;10.15;;;20.70;99.90;;;;;;5080149;28;20399;-79
2022/08/19 06:05:40;;;;;;;14.02;9.48;;;20.70;99.90;;;;;;5073737;28;20396;-80
2022/08/19 06:08:18;;;;;;;11.82;10.15;;;20.80;99.90;;;;;;5081924;28;20405;-80
2022/08/19 06:10:45;;;;;;;15.80;9.80;;;20.90;99.90;;;;;;5081195;28;20887;-79
2022/08/19 06:13:13;;;;;;;14.07;9.60;;;20.90;99.90;;;;;;5077412;28;20421;-80
2022/08/19 06:15:43;;;;;;;17.55;9.75;;;20.90;99.90;;;;;;5076722;28;20398;-80
2022/08/19 06:18:12;;;;;;;16.45;9.75;;;20.90;99.90;;;;;;5068679;28;20437;-80
2022/08/19 06:20:41;;;;;;;14.45;9.85;;;21.00;99.90;;;;;;5070910;28;20464;-79
2022/08/19 06:23:22;;;;;;;18.05;9.98;;;21.10;99.90;;;;;;5064068;28;20405;-80
2022/08/19 06:25:50;;;;;;;15.38;9.40;;;21.10;99.90;;;;;;5071823;28;20435;-79
2022/08/19 06:28:18;;;;;;;14.55;9.73;;;21.10;99.90;;;;;;5076543;28;20890;-79
2022/08/19 06:30:46;;;;;;;16.42;9.73;;;21.20;99.90;;;;;;5083620;28;20743;-79
2022/08/19 06:33:13;;;;;;;15.93;9.63;;;21.20;99.90;;;;;;5086915;28;20379;-78
2022/08/19 06:35:42;;;;;;;13.38;9.05;;;21.30;99.90;;;;;;5076170;28;20390;-80
2022/08/19 06:38:15;;;;;;;14.90;9.32;;;21.40;99.90;;;;;;5085287;28;20409;-80
2022/08/19 06:40:43;;;;;;;16.77;9.23;;;21.40;99.90;;;;;;5087115;28;20424;-80
2022/08/19 06:43:16;;;;;;;13.93;9.00;;;21.50;99.90;;;;;;5075100;28;20476;-79
2022/08/19 06:45:44;;;;;;;15.43;9.10;;;21.50;99.90;;;;;;5082277;28;20398;-80
2022/08/19 06:48:14;;;;;;;15.87;9.00;;;21.60;99.90;;;;;;5082237;28;20418;-80
2022/08/19 06:50:44;;;;;;;14.13;8.77;;;21.70;99.90;;;;;;5079876;28;20378;-79
2022/08/19 06:53:12;;;;;;;14.75;9.40;;;21.70;99.90;;;;;;5078582;28;20392;-80
2022/08/19 06:55:40;;;;;;;18.60;9.30;;;21.80;99.90;;;;;;5075470;28;20395;-79
2022/08/19 06:58:09;;;;;;;14.13;9.10;;;21.90;99.90;;;;;;5080583;28;20400;-80
2022/08/19 07:00:37;;;;;;;15.00;8.57;;;21.90;99.90;;;;;;5083879;28;20400;-80
2022/08/19 07:03:04;;;;;;;14.98;9.23;;;21.90;99.90;;;;;;5079540;28;20416;-79
2022/08/19 07:05:42;;;;;;;15.02;9.20;;;22.00;99.90;;;;;;5084129;28;20396;-79
2022/08/19 07:08:13;;;;;;;13.15;9.05;;;22.00;99.90;;;;;;5084244;28;20411;-79
2022/08/19 07:10:46;;;;;;;14.25;8.60;;;22.10;99.90;;;;;;5086975;28;20960;-80
2022/08/19 07:13:14;;;;;;;17.63;9.13;;;22.20;99.90;;;;;;5088222;28;20692;-80
2022/08/19 07:15:42;;;;;;;17.90;9.05;;;22.20;99.90;;;;;;5079793;28;20394;-79
2022/08/19 07:18:09;;;;;;;13.23;8.57;;;22.30;99.90;;;;;;5083952;28;20401;-79
2022/08/19 07:20:39;;;;;;;13.00;8.23;;;22.30;99.90;;;;;;5090585;28;20376;-79
2022/08/19 07:23:09;;;;;;;12.63;8.93;;;22.30;99.90;;;;;;5085411;28;20485;-78
2022/08/19 07:25:43;;;;;;;12.77;8.40;;;22.40;99.90;;;;;;5081354;28;20441;-79
2022/08/19 07:28:20;;;;;;;13.63;8.00;;;22.50;99.90;;;;;;5081481;28;20498;-79
2022/08/19 07:30:52;;;;;;;13.05;7.80;;;22.60;99.90;;;;;;5085769;28;20470;-79
2022/08/19 07:33:20;;;;;;;15.50;8.02;;;22.60;99.90;;;;;;5079097;28;20429;-79
2022/08/19 07:35:48;;;;;;;16.13;8.43;;;22.70;99.90;;;;;;5083489;28;20401;-78
2022/08/19 07:38:17;;;;;;;15.18;8.43;;;22.70;99.90;;;;;;5086626;28;20619;-80
2022/08/19 07:40:45;;;;;;;13.40;8.23;;;22.70;99.90;;;;;;5081805;28;20402;-79
2022/08/19 07:43:14;;;;;;;11.77;8.23;;;22.80;99.90;;;;;;5072880;28;20786;-80
2022/08/19 07:45:45;;;;;;;13.97;8.27;;;22.90;99.90;;;;;;5080030;28;20402;-79
2022/08/19 07:48:12;;;;;;;12.63;8.55;;;23.00;99.90;;;;;;5081328;28;20400;-80
2022/08/19 07:50:40;;;;;;;12.63;8.45;;;23.00;99.90;;;;;;5078002;28;20384;-79
2022/08/19 07:53:07;;;;;;;12.85;8.60;;;23.00;99.90;;;;;;5076821;28;20402;-80
2022/08/19 07:55:36;;;;;;;13.65;8.30;;;23.00;99.90;;;;;;5080974;28;20421;-78
2022/08/19 07:58:12;;;;;;;12.85;8.82;;;23.00;99.90;;;;;;5084524;28;20437;-80
2022/08/19 08:00:40;;;;;;;14.77;8.80;;;23.20;99.90;;;;;;5083709;28;20398;-79
2022/08/19 08:03:09;;;;;;;12.52;8.50;;;23.20;99.90;;;;;;5082974;28;20463;-79
2022/08/19 08:11:18;;;;;;;13.95;8.90;;;23.40;99.90;;;;;;5082930;28;20879;-79
2022/08/19 08:13:49;;;;;;;14.20;9.20;;;23.40;99.90;;;;;;5079804;28;20432;-80
2022/08/19 08:16:35;;;;;;;17.00;8.52;;;23.50;99.90;;;;;;5081234;28;20401;-80
2022/08/19 08:19:17;;;;;;;15.30;8.30;;;23.60;99.90;;;;;;5081423;28;20460;-80
2022/08/19 08:21:55;;;;;;;11.13;8.45;;;23.60;99.90;;;;;;5122435;27;20798;-78
2022/08/19 08:24:27;;;;;;;13.43;8.93;;;23.60;99.90;;;;;;5079085;28;20807;-79
2022/08/19 08:26:59;;;;;;;16.45;9.20;;;23.60;99.90;;;;;;5089244;28;20408;-79
2022/08/19 08:29:29;;;;;;;14.02;8.63;;;23.80;99.90;;;;;;5074307;28;20404;-79
2022/08/19 08:32:01;;;;;;;17.20;9.23;;;23.80;99.90;;;;;;5079785;28;20396;-79
2022/08/19 08:34:29;;;;;;;18.20;9.25;;;23.90;99.90;;;;;;5082402;28;20393;-80
2022/08/19 08:36:57;;;;;;;16.30;8.80;;;23.90;99.90;;;;;;5083128;28;20380;-79
2022/08/19 08:39:25;;;;;;;15.98;9.10;;;24.10;99.90;;;;;;5083216;28;20576;-79
2022/08/19 08:42:13;;;;;;;13.48;8.68;;;24.10;99.90;;;;;;5075136;28;20408;-78
2022/08/19 08:44:53;;;;;;;14.05;9.02;;;24.30;99.90;;;;;;5072451;28;20923;-78
2022/08/19 08:47:27;;;;;;;16.40;8.98;;;24.30;99.90;;;;;;5072255;28;20481;-79
2022/08/19 08:50:01;;;;;;;14.50;9.20;;;24.40;99.90;;;;;;5083350;28;20400;-79
2022/08/19 08:52:35;;;;;;;14.90;9.00;;;24.40;99.90;;;;;;5084454;28;20403;-79
2022/08/19 08:55:13;;;;;;;13.73;8.75;;;24.40;99.90;;;;;;5073387;28;20382;-80
2022/08/19 08:57:54;;;;;;;21.45;9.43;;;24.40;99.90;;;;;;5071818;28;20753;-80
2022/08/19 09:00:29;;;;;;;12.88;8.02;;;24.50;99.90;;;;;;5068379;28;20214;-79
2022/08/19 09:02:58;;;;;;;17.17;9.20;;;24.60;99.90;;;;;;5080739;28;20389;-79
2022/08/19 09:05:42;;;;;;;12.02;8.23;;;24.70;99.90;;;;;;5073360;28;20428;-80
2022/08/19 09:08:39;;;;;;;13.25;7.88;;;24.70;99.90;;;;;;5083433;28;20664;-80
2022/08/19 09:11:19;;;;;;;13.48;8.40;;;24.70;99.90;;;;;;5078734;28;20214;-79
2022/08/19 09:14:17;;;;;;;19.33;8.65;;;24.80;99.90;;;;;;5078291;28;20618;-80
2022/08/19 09:17:08;;;;;;;15.95;8.35;;;24.90;99.90;;;;;;5076711;28;20542;-78
2022/08/19 09:19:56;;;;;;;13.85;8.40;;;24.90;99.90;;;;;;5080536;28;20196;-79
2022/08/19 09:22:26;;;;;;;11.20;7.72;;;25.00;99.90;;;;;;5072608;28;20180;-80
2022/08/19 09:24:55;;;;;;;14.45;9.27;;;25.00;99.90;;;;;;5098260;28;20646;-79
2022/08/19 09:27:24;;;;;;;12.30;8.73;;;25.00;99.90;;;;;;5114843;27;20280;-80
2022/08/19 09:30:23;;;;;;;14.40;8.77;;;25.00;99.90;;;;;;5082372;28;20228;-79
2022/08/19 09:32:54;;;;;;;13.00;8.63;;;25.20;99.90;;;;;;5099685;28;20922;-81
2022/08/19 09:35:32;;;;;;;18.52;8.88;;;25.20;99.90;;;;;;5092431;28;20174;-80
2022/08/19 09:38:22;;;;;;;14.35;8.88;;;25.20;99.90;;;;;;5105971;28;20186;-80
2022/08/19 09:40:52;;;;;;;14.98;8.25;;;25.30;99.90;;;;;;5102565;28;20292;-79
2022/08/19 09:43:27;;;;;;;16.05;8.82;;;25.30;99.90;;;;;;5101814;28;20183;-79
2022/08/19 09:46:11;;;;;;;14.10;8.50;;;25.40;99.90;;;;;;5095902;28;20187;-80
2022/08/19 09:48:48;;;;;;;12.75;8.77;;;25.50;99.90;;;;;;5101842;28;20213;-79
2022/08/19 09:51:23;;;;;;;15.75;8.95;;;25.50;99.90;;;;;;5095934;28;20194;-78
2022/08/19 09:53:56;;;;;;;13.13;8.63;;;25.60;99.90;;;;;;5105068;28;20669;-79
2022/08/19 09:56:25;;;;;;;11.48;7.45;;;25.60;99.90;;;;;;5108675;28;20262;-79
2022/08/19 09:58:54;;;;;;;16.38;9.13;;;25.60;99.90;;;;;;5100758;28;20251;-79
2022/08/19 10:01:27;;;;;;;28.52;9.23;;;25.70;99.90;;;;;;5100102;28;20263;-80
2022/08/19 10:03:58;;;;;;;15.95;8.52;;;25.80;99.90;;;;;;5099195;28;20195;-80
2022/08/19 10:06:33;;;;;;;15.07;9.05;;;25.90;99.90;;;;;;5100884;28;20210;-80
2022/08/19 10:09:13;;;;;;;15.50;8.88;;;26.10;99.90;;;;;;5095691;28;20278;-78
2022/08/19 10:11:43;;;;;;;13.75;8.48;;;26.10;99.90;;;;;;5109254;28;20179;-80
2022/08/19 10:14:23;;;;;;;15.23;8.20;;;26.10;99.90;;;;;;5101548;28;20174;-79
2022/08/19 10:16:51;;;;;;;12.90;8.43;;;26.10;99.90;;;;;;5079930;28;20598;-80
2022/08/19 10:19:21;;;;;;;13.82;8.23;;;26.20;99.90;;;;;;5102275;28;20559;-79
2022/08/19 10:21:53;;;;;;;16.00;9.23;;;26.20;99.90;;;;;;5107253;28;20175;-79
2022/08/19 10:24:27;;;;;;;15.48;9.63;;;26.30;99.90;;;;;;5062527;28;20184;-79
2022/08/19 10:26:56;;;;;;;12.43;9.45;;;26.30;99.90;;;;;;5076443;28;20227;-80
2022/08/19 10:29:28;;;;;;;16.83;9.20;;;26.20;99.90;;;;;;5083010;28;20196;-78
2022/08/19 10:32:05;;;;;;;13.75;8.98;;;26.20;99.90;;;;;;5076808;28;20185;-79
2022/08/19 10:34:37;;;;;;;13.35;9.02;;;26.40;99.90;;;;;;5073515;28;20181;-79
2022/08/19 10:37:17;;;;;;;13.93;8.13;;;26.50;99.90;;;;;;5073254;28;20269;-79
2022/08/19 10:39:55;;;;;;;13.38;8.57;;;26.50;99.90;;;;;;5071646;28;20189;-79
2022/08/19 10:42:22;;;;;;;13.35;9.02;;;26.60;99.90;;;;;;5075424;28;20564;-79
2022/08/19 10:44:50;;;;;;;16.65;9.85;;;26.60;99.90;;;;;;5079964;28;20727;-79
2022/08/19 10:47:18;;;;;;;14.80;8.35;;;26.70;99.90;;;;;;5081445;28;20262;-79
2022/08/19 10:52:41;;;;;;;15.40;9.52;;;27.00;99.90;;;;;;5085658;28;20191;-79
2022/08/19 10:58:17;;;;;;;14.60;10.18;;;26.70;99.90;;;;;;5080949;28;20188;-80
2022/08/19 11:00:53;;;;;;;17.33;10.30;;;26.80;99.90;;;;;;5080487;28;20614;-80
2022/08/19 11:03:22;;;;;;;17.08;10.13;;;26.70;99.90;;;;;;5083089;28;20187;-79
2022/08/19 11:06:07;;;;;;;13.60;9.73;;;26.50;99.90;;;;;;5075300;28;20185;-79
2022/08/19 11:08:39;;;;;;;15.77;9.90;;;26.40;99.90;;;;;;5072517;28;20222;-79
2022/08/19 11:11:09;;;;;;;13.70;9.57;;;26.40;99.90;;;;;;5055855;28;20181;-80
2022/08/19 11:13:39;;;;;;;15.35;9.50;;;26.60;99.90;;;;;;5073899;28;20192;-80
2022/08/19 11:16:18;;;;;;;12.95;9.90;;;26.90;99.90;;;;;;5080551;28;20191;-79
2022/08/19 11:18:52;;;;;;;12.55;9.00;;;27.10;99.90;;;;;;5077788;28;20180;-80
2022/08/19 11:21:32;;;;;;;13.30;9.18;;;27.10;99.90;;;;;;5084096;28;20701;-79
2022/08/19 11:24:06;;;;;;;15.27;9.00;;;27.10;99.90;;;;;;5081740;28;20191;-80
2022/08/19 11:26:37;;;;;;;16.55;9.55;;;27.20;99.90;;;;;;5091714;28;20234;-79
2022/08/19 11:29:11;;;;;;;14.38;9.48;;;27.20;99.90;;;;;;5100003;28;20184;-80
2022/08/19 11:31:41;;;;;;;18.60;10.13;;;27.20;99.90;;;;;;5083052;28;20183;-80
2022/08/19 11:34:16;;;;;;;14.85;9.10;;;27.20;99.90;;;;;;5105467;28;20175;-80
2022/08/19 11:36:47;;;;;;;13.45;8.95;;;27.40;99.90;;;;;;5080117;28;20676;-80
2022/08/19 11:39:18;;;;;;;14.20;9.23;;;27.40;99.90;;;;;;5101573;28;20233;-79
2022/08/19 11:41:46;;;;;;;14.00;9.48;;;27.50;99.90;;;;;;5095627;28;20191;-78
2022/08/19 11:44:14;;;;;;;13.02;9.15;;;27.40;99.90;;;;;;5084867;28;20183;-80
2022/08/19 11:46:46;;;;;;;11.77;9.05;;;27.50;99.90;;;;;;5088325;28;20255;-80
2022/08/19 11:49:18;;;;;;;10.88;8.93;;;27.50;99.90;;;;;;5082481;28;20324;-80
2022/08/19 11:51:48;;;;;;;14.50;9.18;;;27.50;99.90;;;;;;5089349;28;20175;-80
2022/08/19 11:54:17;;;;;;;16.17;9.77;;;27.60;99.90;;;;;;5107238;28;20216;-79
2022/08/19 11:56:48;;;;;;;14.77;9.60;;;27.50;99.90;;;;;;5106095;28;20190;-79
2022/08/19 11:59:17;;;;;;;13.90;9.18;;;27.60;99.90;;;;;;5086429;28;20188;-79
2022/08/19 12:01:46;;;;;;;18.58;9.73;;;27.70;99.90;;;;;;5098651;28;20262;-79
2022/08/19 12:04:13;;;;;;;14.20;8.80;;;27.60;99.90;;;;;;5086097;28;20587;-79
2022/08/19 12:06:41;;;;;;;13.32;8.48;;;27.60;99.90;;;;;;5103625;28;20180;-80
2022/08/19 12:09:10;;;;;;;13.25;9.27;;;27.70;99.90;;;;;;5083515;28;20187;-79
2022/08/19 12:11:39;;;;;;;16.20;9.57;;;27.80;99.90;;;;;;5104624;28;20202;-80
2022/08/19 12:14:10;;;;;;;15.23;9.10;;;27.50;99.90;;;;;;5103194;28;20242;-80
2022/08/19 12:16:41;;;;;;;12.85;9.07;;;27.60;99.90;;;;;;5097795;28;20253;-79
2022/08/19 12:19:19;;;;;;;14.63;9.82;;;27.60;99.90;;;;;;5105630;28;20248;-80
2022/08/19 12:21:49;;;;;;;14.20;8.80;;;27.50;99.90;;;;;;5110237;28;20198;-79
2022/08/19 12:24:22;;;;;;;11.23;8.63;;;27.70;99.90;;;;;;5103119;28;20733;-80
2022/08/19 12:26:51;;;;;;;12.43;9.23;;;27.80;99.90;;;;;;5096269;28;20652;-80
2022/08/19 12:29:29;;;;;;;15.35;8.23;;;28.00;99.90;;;;;;5105977;28;20210;-80
2022/08/19 12:32:00;;;;;;;14.77;9.43;;;28.10;99.90;;;;;;5097524;28;20657;-80
2022/08/19 12:34:32;;;;;;;12.55;8.52;;;28.10;99.90;;;;;;5104310;28;20717;-80
2022/08/19 12:37:03;;;;;;;17.88;8.77;;;28.10;99.90;;;;;;5103607;28;20545;-80
2022/08/19 12:39:38;;;;;;;10.75;7.88;;;28.00;99.90;;;;;;5104339;28;20183;-79
2022/08/19 12:42:08;;;;;;;11.48;8.85;;;28.10;99.90;;;;;;5105111;28;20187;-79
2022/08/19 12:44:37;;;;;;;14.18;8.60;;;28.20;99.90;;;;;;5101569;28;20180;-80
2022/08/19 12:47:09;;;;;;;16.25;8.57;;;28.20;99.90;;;;;;5101565;28;20214;-79
2022/08/19 12:49:39;;;;;;;13.88;8.75;;;28.30;99.90;;;;;;5072560;28;20207;-80
2022/08/19 12:52:25;;;;;;;11.68;8.00;;;28.40;99.90;;;;;;5080469;28;20654;-80
2022/08/19 12:54:55;;;;;;;12.75;8.50;;;28.40;99.90;;;;;;5085011;28;20187;-79
2022/08/19 12:57:25;;;;;;;14.02;8.30;;;28.50;99.90;;;;;;5098434;28;20176;-79
2022/08/19 13:00:11;;;;;;;10.70;7.38;;;28.50;99.90;;;;;;5087817;28;20274;-80
2022/08/19 13:02:41;;;;;;;11.02;7.28;;;28.40;99.90;;;;;;5080611;28;20199;-79
2022/08/19 13:05:10;;;;;;;9.30;7.25;;;28.40;99.90;;;;;;5103279;28;20205;-79
2022/08/19 13:07:41;;;;;;;10.00;7.30;;;28.40;99.90;;;;;;5102859;28;20707;-79
2022/08/19 13:10:12;;;;;;;14.00;8.50;;;28.50;99.90;;;;;;5092572;28;20742;-80
2022/08/19 13:12:41;;;;;;;11.05;7.55;;;28.60;99.90;;;;;;5099877;28;20705;-79
2022/08/19 13:15:09;;;;;;;13.10;7.20;;;28.60;99.90;;;;;;5102410;28;20571;-79